Blanco, NM

5:22 PM MDT on September 20, 2014 (GMT -0600)
Cortez Municipal | Change Station
CLOSE
Current Station
Airport
Location: Cortez,
Elevation: 5915 ft
Nearby Weather Stations

Elev 5915 ft 37.31 °N, 108.63 °W | Updated 29 minutes ago

Clear
Clear
85 °F
Feels Like 85 °F
N
5
Wind Variable Wind from WSW

Today
High -- | Low -- °F
--% Chance of Precip.
Yesterday
High -- | Low -- °F
Precip. -- in
6:57 AM 7:10 PM
Waning Crescent, 10% visible
Pressure 29.90 in
Visibility 10.0 miles
Clouds Clear
Dew Point 43 °F
Humidity 23%
Rainfall 0.00 in
Snow Depth 2 in , 1 in
UV 3 out of 12
Pollen 6.30 out of 12
Air Quality Not available.
Flu Activity Not available.
METAR KCEZ 202253Z AUTO 24004KT 10SM CLR 29/06 A3011 RMK AO2 SLP123 T02940061

More Conditions Fewer Conditions

Pressure 29.90 in
Visibility 10.0 miles
Clouds Clear
Dew Point 43 °F
Humidity 23%
Rainfall 0.00 in
Snow Depth 2 in , 1 in
UV 3 out of 12
Pollen 6.30 out of 12
Air Quality Not available.
Flu Activity Not available.
METAR KCEZ 202253Z AUTO 24004KT 10SM CLR 29/06 A3011 RMK AO2 SLP123 T02940061

More Conditions Fewer Conditions

Nowcast | as of 3:58 PM MDT on September 20, 2014

Isolated showers and thunderstorms will continue over western New Mexico throughout the remainder of the afternoon. These storms will be capable of producing torrential rain at a rate of one to two inches an hour...wind gusts to 45 mph...one half inch hail and dangerous cloud to ground lightning. Movement will be to the northeast at only 10 mph. Locations impacted through 6 PM include the Miller and Whitewater Baldy burn scars...Glenwood...Reserve... Quemado Lake...Fence Lake...Ojo Caliente...Counselor...Dulce and Farmington.

×

10-Day Weather Forecast

Almanac

Astronomy

Sep. 20, 2014 Rise Set
Actual Time 6:57 AM MDT 7:10 PM MDT
Civil Twilight 6:31 AM MDT 7:36 PM MDT
Nautical Twilight 6:01 AM MDT 8:06 PM MDT
Astronomical Twilight 5:30 AM MDT 8:37 PM MDT
Moon 3:43 AM MDT 5:12 PM MDT
Length of Visible Light 13h 05m
Length of Day
12h 13m
Tomorrow will be 2m 18s shorter.
Waning Crescent, 10% of the Moon is Illuminated
Today
Waning Crescent
Sep 24
New
Oct 1
First Quarter
Oct 8
Full
Oct 15
Last Quarter

Today's Extremes

State Highs State Lows

Community

WunderPhotos

Upload Photos

1,754,978 photos uploaded!

WunderBlogs® & News

Nearby

Snow Depth

Station Depth Elevation
Wesner Springs 2 in 11120 ft
Silver Creek Divide 1 in 9000 ft
Sierra Blanca 1 in 10280 ft

Earthquake Activity

City Distance Mag. Time & Date
No recent earthquake activity has been reported nearby.
Minimum magnitude displayed is 2.5.

Coastal Water Temperatures

Place Temperature
No Stations Reporting

Nearby Weather Stations